createdAt,value
2023-03-05T00:01:22.556Z,99116.72
2023-03-05T00:03:49.248Z,99114.72
2023-03-05T00:06:17.320Z,99113.47
2023-03-05T00:08:44.151Z,99110.53
2023-03-05T00:11:13.145Z,99113.34
2023-03-05T00:13:40.273Z,99112.25
2023-03-05T00:16:10.744Z,99112.03
2023-03-05T00:18:38.491Z,99119.34
2023-03-05T00:21:20.074Z,99120.03
2023-03-05T00:23:47.542Z,99105.72
2023-03-05T00:26:14.135Z,99118.84
2023-03-05T00:28:40.847Z,99108.00
2023-03-05T00:31:07.550Z,99110.50
2023-03-05T00:33:36.516Z,99110.50
2023-03-05T00:36:07.150Z,99099.81
2023-03-05T00:38:34.946Z,99102.09
2023-03-05T00:41:02.594Z,99098.38
2023-03-05T00:43:30.055Z,99096.91
2023-03-05T00:45:56.709Z,99098.31
2023-03-05T00:48:23.406Z,99093.56
2023-03-05T00:50:50.105Z,99093.50
2023-03-05T00:53:16.838Z,99081.28
2023-03-05T00:55:43.588Z,99088.31
2023-03-05T00:58:10.285Z,99083.63
2023-03-05T01:00:37.169Z,99081.94
2023-03-05T01:03:05.671Z,99071.75
2023-03-05T01:05:32.362Z,99069.84
2023-03-05T01:07:59.038Z,99072.72
2023-03-05T01:10:33.337Z,99073.03
2023-03-05T01:13:00.010Z,99074.19
2023-03-05T01:15:26.818Z,99064.47
2023-03-05T01:17:53.776Z,99058.47
2023-03-05T01:20:22.387Z,99053.06
2023-03-05T01:22:49.751Z,99053.75
2023-03-05T01:25:17.634Z,99055.31
2023-03-05T01:27:44.768Z,99044.81
2023-03-05T01:30:15.362Z,99048.16
2023-03-05T01:32:42.798Z,99043.19
2023-03-05T01:35:16.895Z,99040.81
2023-03-05T01:37:44.013Z,99038.81
2023-03-05T01:40:13.873Z,99040.34
2023-03-05T01:42:40.539Z,99028.81
2023-03-05T01:45:15.868Z,99024.41
2023-03-05T01:47:43.436Z,99027.16
2023-03-05T01:50:20.059Z,99028.69
2023-03-05T01:52:54.063Z,99028.66
2023-03-05T01:55:24.253Z,99022.66
2023-03-05T01:58:01.129Z,99022.31
2023-03-05T02:00:46.533Z,99022.63
2023-03-05T02:03:14.321Z,99012.28
2023-03-05T02:05:44.262Z,99011.81
2023-03-05T02:08:15.996Z,99010.63
2023-03-05T02:10:46.796Z,99010.16
2023-03-05T02:13:19.853Z,99012.59
2023-03-05T02:15:47.608Z,99015.25
2023-03-05T02:18:14.265Z,99016.25
2023-03-05T02:20:56.432Z,99001.41
2023-03-05T02:23:27.389Z,99006.56
2023-03-05T02:25:54.765Z,99004.22
2023-03-05T02:28:47.109Z,99005.84
2023-03-05T02:31:18.532Z,99002.97
2023-03-05T02:33:45.967Z,99000.41
2023-03-05T02:36:12.934Z,98999.28
2023-03-05T02:38:41.148Z,98992.41
2023-03-05T02:41:08.237Z,98994.06
2023-03-05T02:43:37.564Z,99000.63
2023-03-05T02:46:05.012Z,98994.31
2023-03-05T02:48:36.877Z,98998.22
2023-03-05T02:51:05.561Z,98998.00
2023-03-05T02:53:32.369Z,98991.09
2023-03-05T02:55:59.038Z,98994.13
2023-03-05T02:58:25.633Z,98992.59
2023-03-05T03:00:52.282Z,98990.09
2023-03-05T03:03:18.982Z,98989.41
2023-03-05T03:05:45.612Z,98991.09
2023-03-05T03:08:12.233Z,98984.72
2023-03-05T03:10:39.063Z,98986.03
2023-03-05T03:13:05.621Z,98984.84
2023-03-05T03:15:33.343Z,98982.22
2023-03-05T03:18:00.063Z,98984.66
2023-03-05T03:20:27.211Z,98981.16
2023-03-05T03:22:53.873Z,98972.41
2023-03-05T03:25:22.987Z,98973.09
2023-03-05T03:27:49.712Z,98970.19
2023-03-05T03:30:16.660Z,98975.47
2023-03-05T03:32:43.595Z,98973.75
2023-03-05T03:35:11.350Z,98968.09
2023-03-05T03:37:38.440Z,98964.25
2023-03-05T03:40:06.607Z,98964.38
2023-03-05T03:42:33.348Z,98969.00
2023-03-05T03:45:02.079Z,98969.03
2023-03-05T03:47:30.674Z,98966.44
2023-03-05T03:49:58.688Z,98959.34
2023-03-05T03:52:28.572Z,98969.06
2023-03-05T03:55:01.364Z,98962.97
2023-03-05T03:57:36.942Z,98967.34
2023-03-05T04:00:06.915Z,98963.78
2023-03-05T04:02:33.883Z,98958.78
2023-03-05T04:05:00.540Z,98954.31
2023-03-05T04:07:27.170Z,98952.41
2023-03-05T04:09:54.142Z,98950.25
2023-03-05T04:12:21.155Z,98949.31
2023-03-05T04:14:49.057Z,98946.34
2023-03-05T04:17:15.966Z,98941.97
2023-03-05T04:19:43.108Z,98940.81
2023-03-05T04:22:17.448Z,98932.69
2023-03-05T04:24:44.474Z,98928.44
2023-03-05T04:27:11.414Z,98922.91
2023-03-05T04:29:38.225Z,98929.84
2023-03-05T04:32:05.538Z,98921.19
2023-03-05T04:34:33.102Z,98918.75
2023-03-05T04:36:59.818Z,98916.94
2023-03-05T04:39:29.138Z,98903.28
2023-03-05T04:41:55.736Z,98905.69
2023-03-05T04:44:23.197Z,98906.84
2023-03-05T04:46:50.036Z,98894.19
2023-03-05T04:49:16.643Z,98887.72
2023-03-05T04:51:43.238Z,98894.53
2023-03-05T04:54:14.620Z,98894.09
2023-03-05T04:56:41.250Z,98892.91
2023-03-05T04:59:07.801Z,98899.66
2023-03-05T05:01:35.314Z,98893.38
2023-03-05T05:04:02.158Z,98888.63
2023-03-05T05:06:28.736Z,98883.63
2023-03-05T05:08:55.462Z,98870.69
2023-03-05T05:11:22.037Z,98880.84
2023-03-05T05:13:48.595Z,98880.16
2023-03-05T05:16:16.137Z,98880.41
2023-03-05T05:18:42.759Z,98876.75
2023-03-05T05:21:12.523Z,98869.53
2023-03-05T05:23:39.354Z,98872.84
2023-03-05T05:26:09.727Z,98875.16
2023-03-05T05:28:38.314Z,98873.06
2023-03-05T05:31:11.145Z,98873.53
2023-03-05T05:33:38.249Z,98872.63
2023-03-05T05:36:08.696Z,98872.75
2023-03-05T05:38:35.318Z,98864.91
2023-03-05T05:41:04.384Z,98865.50
2023-03-05T05:43:34.146Z,98868.06
2023-03-05T05:46:04.170Z,98874.00
2023-03-05T05:48:33.080Z,98868.38
2023-03-05T05:51:00.344Z,98869.09
2023-03-05T05:53:26.996Z,98868.34
2023-03-05T05:55:53.616Z,98871.66
2023-03-05T05:58:20.402Z,98859.84
2023-03-05T06:00:47.057Z,98869.53
2023-03-05T06:03:14.218Z,98869.53
2023-03-05T06:05:42.548Z,98870.81
2023-03-05T06:08:10.103Z,98874.06
2023-03-05T06:10:36.749Z,98873.69
2023-03-05T06:13:03.334Z,98871.50
2023-03-05T06:15:30.682Z,98875.34
2023-03-05T06:17:59.907Z,98871.50
2023-03-05T06:20:27.732Z,98870.22
2023-03-05T06:22:55.226Z,98866.66
2023-03-05T06:25:21.983Z,98872.72
2023-03-05T06:27:48.538Z,98867.41
2023-03-05T06:30:15.401Z,98872.56
2023-03-05T06:32:42.037Z,98865.13
2023-03-05T06:35:09.026Z,98869.44
2023-03-05T06:37:36.493Z,98867.03
2023-03-05T06:40:03.442Z,98876.88
2023-03-05T06:42:30.027Z,98870.47
2023-03-05T06:44:56.606Z,98872.22
2023-03-05T06:47:23.169Z,98867.78
2023-03-05T06:49:54.763Z,98876.19
2023-03-05T06:52:21.334Z,98874.69
2023-03-05T06:54:50.702Z,98875.22
2023-03-05T06:57:17.317Z,98876.88
2023-03-05T06:59:43.916Z,98879.41
2023-03-05T07:02:12.207Z,98875.47
2023-03-05T07:04:39.115Z,98874.25
2023-03-05T07:07:06.953Z,98870.31
2023-03-05T07:09:33.552Z,98864.03
2023-03-05T07:12:00.152Z,98879.41
2023-03-05T07:14:26.738Z,98871.19
2023-03-05T07:16:53.347Z,98874.91
2023-03-05T07:19:20.067Z,98869.94
2023-03-05T07:21:47.369Z,98873.50
2023-03-05T07:24:14.237Z,98879.34
2023-03-05T07:26:40.849Z,98873.34
2023-03-05T07:29:07.457Z,98877.69
2023-03-05T07:31:34.200Z,98870.22
2023-03-05T07:34:02.760Z,98870.94
2023-03-05T07:36:30.065Z,98866.84
2023-03-05T07:38:56.819Z,98866.84
2023-03-05T07:41:23.775Z,98865.78
2023-03-05T07:43:53.704Z,98861.88
2023-03-05T07:46:27.080Z,98865.78
2023-03-05T07:48:54.694Z,98864.94
2023-03-05T07:51:23.952Z,98872.41
2023-03-05T07:53:52.313Z,98865.03
2023-03-05T07:56:36.836Z,98852.41
2023-03-05T07:59:08.606Z,98861.09
2023-03-05T08:01:35.596Z,98854.84
2023-03-05T08:04:03.882Z,98854.81
2023-03-05T08:06:30.971Z,98856.13
2023-03-05T08:08:58.616Z,98844.09
2023-03-05T08:11:26.055Z,98850.19
2023-03-05T08:13:52.647Z,98839.91
2023-03-05T08:16:21.460Z,98834.13
2023-03-05T08:18:49.796Z,98842.50
2023-03-05T08:21:26.826Z,98838.63
2023-03-05T08:23:53.471Z,98834.19
2023-03-05T08:26:23.521Z,98838.56
2023-03-05T08:28:51.020Z,98824.16
2023-03-05T08:31:21.407Z,98833.28
2023-03-05T08:33:50.325Z,98824.97
2023-03-05T08:36:17.260Z,98826.84
2023-03-05T08:38:44.661Z,98828.75
2023-03-05T08:41:11.320Z,98823.56
2023-03-05T08:43:38.279Z,98829.19
2023-03-05T08:46:05.582Z,98828.41
2023-03-05T08:48:32.724Z,98827.03
2023-03-05T08:51:16.821Z,98820.47
2023-03-05T08:53:45.494Z,98818.28
2023-03-05T08:56:12.392Z,98818.13
2023-03-05T08:58:39.348Z,98812.31
2023-03-05T09:01:06.662Z,98815.34
2023-03-05T09:03:33.604Z,98815.09
2023-03-05T09:06:06.621Z,98805.47
2023-03-05T09:08:34.084Z,98813.31
2023-03-05T09:11:06.493Z,98811.06
2023-03-05T09:13:33.838Z,98807.19
2023-03-05T09:16:08.130Z,98808.03
2023-03-05T09:18:36.561Z,98807.00
2023-03-05T09:21:15.745Z,98799.50
2023-03-05T09:23:45.081Z,98800.19
2023-03-05T09:26:13.017Z,98796.38
2023-03-05T09:28:40.607Z,98796.13
2023-03-05T09:31:09.352Z,98789.72
2023-03-05T09:33:37.336Z,98783.31
2023-03-05T09:36:26.285Z,98795.53
2023-03-05T09:38:54.013Z,98786.69
2023-03-05T09:41:30.091Z,98789.66
2023-03-05T09:44:37.518Z,98791.66
2023-03-05T09:47:32.510Z,98788.53
2023-03-05T09:50:19.764Z,98791.03
2023-03-05T09:52:55.489Z,98786.94
2023-03-05T09:55:40.827Z,98798.53
2023-03-05T09:58:34.189Z,98791.66
2023-03-05T10:01:36.261Z,98785.03
2023-03-05T10:04:08.755Z,98775.38
2023-03-05T10:07:08.933Z,98776.44
2023-03-05T10:09:47.369Z,98775.16
2023-03-05T10:12:42.174Z,98772.88
2023-03-05T10:15:15.900Z,98765.06
2023-03-05T10:18:27.597Z,98760.63
2023-03-05T10:21:49.443Z,98759.94
2023-03-05T10:24:36.389Z,98757.56
2023-03-05T10:27:11.390Z,98762.59
2023-03-05T10:30:03.287Z,98753.97
2023-03-05T10:33:26.418Z,98738.50
2023-03-05T10:36:19.330Z,98736.66
2023-03-05T10:39:42.412Z,98731.13
2023-03-05T10:43:06.868Z,98721.75
2023-03-05T10:45:40.422Z,98722.31
2023-03-05T10:48:40.677Z,98714.41
2023-03-05T10:51:20.874Z,98713.16
2023-03-05T10:53:56.698Z,98712.38
2023-03-05T10:56:26.801Z,98702.03
2023-03-05T10:58:54.321Z,98703.78
2023-03-05T11:01:26.534Z,98697.38
2023-03-05T11:04:06.091Z,98688.06
2023-03-05T11:06:40.188Z,98693.22
2023-03-05T11:09:20.587Z,98696.22
2023-03-05T11:12:14.498Z,98691.75
2023-03-05T11:14:48.771Z,98686.06
2023-03-05T11:17:30.669Z,98691.31
2023-03-05T11:20:27.276Z,98686.22
2023-03-05T11:23:19.815Z,98681.13
2023-03-05T11:25:54.973Z,98679.91
2023-03-05T11:28:57.280Z,98684.09
2023-03-05T11:31:28.718Z,98680.00
2023-03-05T11:34:23.788Z,98672.81
2023-03-05T11:36:53.367Z,98670.63
2023-03-05T11:39:30.187Z,98669.69
2023-03-05T11:42:02.155Z,98668.19
2023-03-05T11:44:46.589Z,98665.38
2023-03-05T11:47:47.826Z,98669.47
2023-03-05T11:50:24.545Z,98662.78
2023-03-05T11:53:22.418Z,98667.69
2023-03-05T11:56:01.642Z,98650.50
2023-03-05T11:58:35.894Z,98647.59
2023-03-05T12:01:06.964Z,98647.59
2023-03-05T12:03:36.949Z,98645.03
2023-03-05T12:06:39.026Z,98641.53
2023-03-05T12:09:46.600Z,98630.59
2023-03-05T12:12:49.016Z,98633.81
2023-03-05T12:15:18.649Z,98624.78
2023-03-05T12:18:24.512Z,98622.16
2023-03-05T12:21:14.824Z,98620.25
2023-03-05T12:24:01.242Z,98619.16
2023-03-05T12:26:52.586Z,98618.78
2023-03-05T12:29:54.227Z,98609.03
2023-03-05T12:32:31.303Z,98609.41
2023-03-05T12:35:25.897Z,98606.19
2023-03-05T12:37:52.488Z,98596.22
2023-03-05T12:40:27.092Z,98598.88
2023-03-05T12:43:00.700Z,98597.16
2023-03-05T12:45:37.776Z,98592.22
2023-03-05T12:48:10.491Z,98585.78
2023-03-05T12:50:40.123Z,98585.56
2023-03-05T12:53:06.918Z,98579.78
2023-03-05T12:55:48.382Z,98575.81
2023-03-05T12:58:48.324Z,98570.66
2023-03-05T13:01:50.348Z,98563.91
2023-03-05T13:04:24.667Z,98557.34
2023-03-05T13:07:14.323Z,98558.22
2023-03-05T13:09:52.210Z,98556.75
2023-03-05T13:12:19.046Z,98565.44
2023-03-05T13:15:04.094Z,98560.53
2023-03-05T13:17:38.028Z,98563.16
2023-03-05T13:20:45.877Z,98546.78
2023-03-05T13:23:29.357Z,98543.38
2023-03-05T13:26:09.763Z,98530.81
2023-03-05T13:28:39.145Z,98537.25
2023-03-05T13:31:18.944Z,98521.06
2023-03-05T13:33:58.957Z,98531.22
2023-03-05T13:36:27.116Z,98530.47
2023-03-05T13:38:54.286Z,98535.53
2023-03-05T13:41:27.650Z,98529.38
2023-03-05T13:43:56.821Z,98527.84
2023-03-05T13:46:30.391Z,98526.34
2023-03-05T13:49:17.114Z,98521.78
2023-03-05T13:51:48.407Z,98522.03
2023-03-05T13:54:17.703Z,98517.56
2023-03-05T13:56:56.383Z,98508.69
2023-03-05T13:59:28.866Z,98515.09
2023-03-05T14:01:58.086Z,98513.59
2023-03-05T14:04:34.411Z,98509.81
2023-03-05T14:07:38.446Z,98495.84
2023-03-05T14:10:29.274Z,98495.53
2023-03-05T14:12:57.716Z,98488.03
2023-03-05T14:15:28.870Z,98489.91
2023-03-05T14:18:11.848Z,98484.88
2023-03-05T14:20:41.210Z,98482.75
2023-03-05T14:23:42.813Z,98480.31
2023-03-05T14:26:31.195Z,98480.50
2023-03-05T14:29:03.797Z,98485.75
2023-03-05T14:31:53.844Z,98480.06
2023-03-05T14:34:36.557Z,98474.59
2023-03-05T14:37:31.374Z,98468.91
2023-03-05T14:40:06.166Z,98459.63
2023-03-05T14:42:49.588Z,98463.66
2023-03-05T14:45:26.786Z,98461.06
2023-03-05T14:47:56.813Z,98458.84
2023-03-05T14:50:28.485Z,98454.53
2023-03-05T14:53:00.488Z,98454.53
2023-03-05T14:55:31.737Z,98448.28
2023-03-05T14:58:07.322Z,98451.75
2023-03-05T15:00:33.939Z,98452.97
2023-03-05T15:03:00.708Z,98449.31
2023-03-05T15:05:27.537Z,98442.81
2023-03-05T15:07:54.256Z,98441.94
2023-03-05T15:10:24.869Z,98429.38
2023-03-05T15:12:53.075Z,98430.56
2023-03-05T15:15:21.164Z,98419.59
2023-03-05T15:17:54.503Z,98424.69
2023-03-05T15:20:25.399Z,98414.41
2023-03-05T15:22:52.888Z,98417.94
2023-03-05T15:25:22.198Z,98411.75
2023-03-05T15:27:50.706Z,98406.22
2023-03-05T15:30:26.749Z,98408.88
2023-03-05T15:32:55.314Z,98398.97
2023-03-05T15:35:23.379Z,98398.66
2023-03-05T15:37:50.649Z,98393.03
2023-03-05T15:40:17.634Z,98391.59
2023-03-05T15:42:44.335Z,98380.72
2023-03-05T15:45:11.093Z,98384.94
2023-03-05T15:47:37.750Z,98377.53
2023-03-05T15:50:05.572Z,98375.97
2023-03-05T15:52:32.378Z,98380.72
2023-03-05T15:55:01.110Z,98371.41
2023-03-05T15:57:28.370Z,98363.84
2023-03-05T15:59:56.100Z,98361.06
2023-03-05T16:02:24.595Z,98360.84
2023-03-05T16:04:51.210Z,98359.34
2023-03-05T16:07:18.100Z,98349.34
2023-03-05T16:09:49.409Z,98350.06
2023-03-05T16:12:40.676Z,98346.22
2023-03-05T16:15:14.065Z,98348.78
2023-03-05T16:17:44.031Z,98339.88
2023-03-05T16:20:12.302Z,98336.66
2023-03-05T16:22:39.342Z,98347.75
2023-03-05T16:25:06.617Z,98339.56
2023-03-05T16:27:33.872Z,98340.31
2023-03-05T16:30:00.537Z,98336.31
2023-03-05T16:32:27.281Z,98332.94
2023-03-05T16:34:53.927Z,98334.22
2023-03-05T16:37:23.406Z,98331.75
2023-03-05T16:39:50.396Z,98337.75
2023-03-05T16:42:17.559Z,98339.13
2023-03-05T16:44:45.204Z,98328.09
2023-03-05T16:47:19.262Z,98325.19
2023-03-05T16:49:45.875Z,98334.53
2023-03-05T16:52:18.710Z,98321.28
2023-03-05T16:54:46.660Z,98326.63
2023-03-05T16:57:13.272Z,98322.28
2023-03-05T16:59:40.801Z,98324.81
2023-03-05T17:02:08.047Z,98317.78
2023-03-05T17:04:34.887Z,98319.91
2023-03-05T17:07:03.358Z,98325.44
2023-03-05T17:09:30.970Z,98326.91
2023-03-05T17:12:00.767Z,98316.69
2023-03-05T17:14:27.573Z,98320.38
2023-03-05T17:16:54.224Z,98320.91
2023-03-05T17:19:20.899Z,98310.53
2023-03-05T17:21:50.937Z,98315.28
2023-03-05T17:24:20.107Z,98311.31
2023-03-05T17:26:48.043Z,98313.00
2023-03-05T17:29:14.681Z,98311.88
2023-03-05T17:31:41.519Z,98314.94
2023-03-05T17:34:08.236Z,98309.22
2023-03-05T17:36:34.871Z,98313.97
2023-03-05T17:39:01.703Z,98310.47
2023-03-05T17:41:28.269Z,98310.91
2023-03-05T17:43:54.923Z,98311.88
2023-03-05T17:46:21.496Z,98314.78
2023-03-05T17:48:48.425Z,98309.78
2023-03-05T17:51:16.578Z,98310.31
2023-03-05T17:53:43.341Z,98306.16
2023-03-05T17:56:11.526Z,98306.28
2023-03-05T17:58:38.567Z,98305.47
2023-03-05T18:01:06.874Z,98306.25
2023-03-05T18:03:34.488Z,98310.25
2023-03-05T18:06:01.247Z,98303.13
2023-03-05T18:08:27.933Z,98310.25
2023-03-05T18:10:54.724Z,98300.19
2023-03-05T18:13:21.390Z,98292.00
2023-03-05T18:15:48.061Z,98293.47
2023-03-05T18:18:17.834Z,98294.94
2023-03-05T18:20:45.345Z,98287.88
2023-03-05T18:23:12.429Z,98287.28
2023-03-05T18:25:39.171Z,98291.66
2023-03-05T18:28:12.336Z,98287.56
2023-03-05T18:30:40.772Z,98283.19
2023-03-05T18:33:09.335Z,98281.53
2023-03-05T18:35:36.745Z,98272.75
2023-03-05T18:38:03.410Z,98265.84
2023-03-05T18:40:32.586Z,98265.66
2023-03-05T18:43:01.335Z,98264.97
2023-03-05T18:45:30.515Z,98269.22
2023-03-05T18:47:57.245Z,98265.38
2023-03-05T18:50:27.141Z,98254.34
2023-03-05T18:52:53.937Z,98254.09
2023-03-05T18:55:25.852Z,98256.19
2023-03-05T18:57:53.204Z,98255.25
2023-03-05T19:00:27.109Z,98251.53
2023-03-05T19:02:55.178Z,98249.16
2023-03-05T19:05:22.590Z,98248.09
2023-03-05T19:07:49.362Z,98247.44
2023-03-05T19:10:17.504Z,98251.88
2023-03-05T19:13:35.770Z,98253.13
2023-03-05T19:16:20.492Z,98254.09
2023-03-05T19:19:14.909Z,98245.84
2023-03-05T19:21:43.792Z,98247.78
2023-03-05T19:24:11.308Z,98240.31
2023-03-05T19:26:39.135Z,98243.28
2023-03-05T19:29:07.116Z,98245.31
2023-03-05T19:31:34.533Z,98234.63
2023-03-05T19:34:01.666Z,98233.63
2023-03-05T19:36:28.320Z,98226.22
2023-03-05T19:38:55.171Z,98231.03
2023-03-05T19:41:22.101Z,98229.63
2023-03-05T19:43:49.754Z,98221.91
2023-03-05T19:46:17.460Z,98222.22
2023-03-05T19:48:44.742Z,98222.19
2023-03-05T19:51:21.433Z,98216.91
2023-03-05T19:53:48.976Z,98226.19
2023-03-05T19:56:17.109Z,98216.41
2023-03-05T19:58:45.439Z,98223.56
2023-03-05T20:01:17.795Z,98220.50
2023-03-05T20:03:47.580Z,98213.09
2023-03-05T20:06:15.272Z,98222.28
2023-03-05T20:08:42.101Z,98209.81
2023-03-05T20:11:12.157Z,98213.09
2023-03-05T20:13:39.531Z,98210.13
2023-03-05T20:16:17.029Z,98207.41
2023-03-05T20:18:44.760Z,98203.69
2023-03-05T20:21:12.116Z,98191.75
2023-03-05T20:23:39.324Z,98189.44
2023-03-05T20:26:06.571Z,98198.81
2023-03-05T20:28:34.028Z,98191.44
2023-03-05T20:31:02.036Z,98186.41
2023-03-05T20:33:29.526Z,98195.50
2023-03-05T20:35:56.490Z,98199.00
2023-03-05T20:38:29.366Z,98198.38
2023-03-05T20:40:59.536Z,98197.75
2023-03-05T20:43:29.557Z,98196.88
2023-03-05T20:45:58.489Z,98193.47
2023-03-05T20:48:33.074Z,98190.34
2023-03-05T20:51:15.347Z,98193.53
2023-03-05T20:53:42.570Z,98189.75
2023-03-05T20:56:09.213Z,98187.53
2023-03-05T20:58:35.860Z,98186.94
2023-03-05T21:01:02.519Z,98181.94
2023-03-05T21:03:29.166Z,98187.94
2023-03-05T21:05:57.001Z,98174.00
2023-03-05T21:08:24.402Z,98173.69
2023-03-05T21:10:51.068Z,98178.00
2023-03-05T21:13:17.973Z,98165.94
2023-03-05T21:15:44.610Z,98167.03
2023-03-05T21:18:11.328Z,98166.50
2023-03-05T21:20:38.006Z,98167.63
2023-03-05T21:23:04.639Z,98161.97
2023-03-05T21:25:33.090Z,98161.66
2023-03-05T21:28:02.295Z,98158.28
2023-03-05T21:30:43.448Z,98159.03
2023-03-05T21:33:17.326Z,98157.19
2023-03-05T21:35:47.649Z,98150.44
2023-03-05T21:38:14.450Z,98148.78
2023-03-05T21:40:45.353Z,98141.13
2023-03-05T21:43:12.867Z,98139.25
2023-03-05T21:45:40.578Z,98130.81
2023-03-05T21:48:08.404Z,98129.72
2023-03-05T21:50:35.692Z,98122.41
2023-03-05T21:53:02.972Z,98110.22
2023-03-05T21:56:21.866Z,98114.31
2023-03-05T21:58:48.787Z,98116.50
2023-03-05T22:01:19.103Z,98105.41
2023-03-05T22:03:46.112Z,98110.34
2023-03-05T22:06:14.755Z,98095.84
2023-03-05T22:08:41.787Z,98094.72
2023-03-05T22:11:15.029Z,98083.69
2023-03-05T22:13:42.214Z,98079.22
2023-03-05T22:16:09.562Z,98076.03
2023-03-05T22:18:39.222Z,98073.16
2023-03-05T22:21:16.601Z,98076.72
2023-03-05T22:23:43.373Z,98065.31
2023-03-05T22:26:09.982Z,98059.09
2023-03-05T22:28:38.758Z,98052.38
2023-03-05T22:31:09.943Z,98053.78
2023-03-05T22:33:37.022Z,98052.78
2023-03-05T22:36:12.052Z,98047.56
2023-03-05T22:38:42.802Z,98036.31
2023-03-05T22:41:12.416Z,98038.97
2023-03-05T22:43:39.823Z,98042.66
2023-03-05T22:46:32.514Z,98037.81
2023-03-05T22:48:59.088Z,98032.56
2023-03-05T22:51:25.678Z,98021.00
2023-03-05T22:53:53.451Z,98021.00
2023-03-05T22:56:20.992Z,98021.34
2023-03-05T22:58:48.181Z,98014.19
2023-03-05T23:01:25.809Z,98018.28
2023-03-05T23:04:54.848Z,98017.50
2023-03-05T23:07:26.229Z,98012.31
2023-03-05T23:09:59.710Z,98014.56
2023-03-05T23:12:33.550Z,98008.97
2023-03-05T23:15:02.081Z,98011.31
2023-03-05T23:17:28.854Z,98002.72
2023-03-05T23:19:55.498Z,97998.97
2023-03-05T23:22:22.202Z,97992.59
2023-03-05T23:24:48.777Z,98002.34
2023-03-05T23:27:17.520Z,97994.13
2023-03-05T23:30:21.831Z,97996.31
2023-03-05T23:32:57.155Z,97997.47
2023-03-05T23:35:25.523Z,97984.53
2023-03-05T23:37:56.640Z,97991.03
2023-03-05T23:40:33.255Z,97982.09
2023-03-05T23:43:00.235Z,97985.09
2023-03-05T23:45:28.177Z,97984.75
2023-03-05T23:47:55.426Z,97978.72
2023-03-05T23:50:26.147Z,97979.47
2023-03-05T23:52:54.300Z,97978.38
2023-03-05T23:55:39.437Z,97974.63
2023-03-05T23:58:07.155Z,97971.81
